LFTW/FNI METAR and TAF weather

Enter ICAO airport designator
Station Type Date Time Source
LFTW METAR 2019/04/25 17:30 UTC NOAA

LFTW 251730Z AUTO 15020G32KT 9999 -RA OVC015 14/12 Q1009 TEMPO 1500 TSRA BKN010 SCT030CB


Station Type Date Time Source
LFTW Decoded METAR 2019/04/25 17:30 UTC NOAA

Nimes / Garons, France (LFTW) 43-45N 004-25E 96M
Apr 25, 2019 - 01:30 PM EDT / 2019.04.25 1730 UTC
Wind: from the SSE (150 degrees) at 23 MPH (20 KT) gusting to 37 MPH (32 KT):0
Visibility: greater than 7 mile(s):0
Sky conditions: overcast
Weather: light rain; Cumulonimbus clouds observed
Temperature: 57 F (14 C)
Dew Point: 53 F (12 C)
Relative Humidity: 87%
Pressure (altimeter): 29.80 in. Hg (1009 hPa)
ob: LFTW 251730Z AUTO 15020G32KT 9999 -RA OVC015 14/12 Q1009 TEMPO 1500 TSRA BKN010 SCT030CB
cycle: 17

Station Type Date Time Source
LFTW TAF 2019/04/25 15:21 UTC NOAA

TAF LFTW 251400Z 2515/2615 16025G35KT 9999 BKN020 PROB40
TEMPO 2515/2518 16030G45KT SHRA BKN014 SCT030TCU PROB40
TEMPO 2518/2522 VRB25G35KT 1500 TSRA BKN010 SCT030CB
BECMG 2522/2524 36008KT CAVOK
BECMG 2610/2612 28015KT

Example: see airport list